KCSG

Columbus Airport

Columbus, Georgia, USA
METAR KCSG 180651Z AUTO 34003KT 10SM OVC037 20/16 A3013 RMK AO2 RAE0552 SLP199 P0000 T02000156
Observed Flight Rules
Feb-18 @ 06:51 UTC (25 minutes ago) Visual Flight Rules
Wind Visibility Clouds
340° at 3 knots 10 miles
  • Overcast at 3,700' AGL
Temperatures Readings Precipitation
Current 20°C / 68°F
Dewpoint 16°C / 61°F
Humidity 78%
Altimeter 30.13" Hg
Pressure 1019.9 hPa
Elevation 135
Current Rain 0.005
METAR KCSG 180651Z AUTO 34003KT 10SM OVC037 20/16 A3013 RMK AO2 RAE0552 SLP199 P0000 T02000156
Observed Flight Rules
Feb-18 @ 06:51 UTC
(25 minutes ago)
VFR
Wind Visibility
340° at 3 knots 10 miles
Clouds
  • Overcast at 3,700' AGL
Temperature Dewpoint
20°C / 68°F 16°C / 61°F
Humidity Altimeter Pressure
78% 30.13" Hg 1019.9 hPa
Current Rain
0.005